Time;durP1;ratioP1;P1;durP2;ratioP2;P2;SDS_P1;SDS_P2;PMS_P1;PMS_P2;Temp;Humidity;BMP_temperature;BMP_pressure;BME280_temperature;BME280_humidity;BME280_pressure;Samples;Min_cycle;Max_cycle;Signal;HPM_P1;HPM_P2
2022/11/18 00:00:51;;;;;;;1.40;0.70;;;9.70;97.60;;;;;;5095844;28;20448;-46
2022/11/18 00:03:17;;;;;;;2.23;0.77;;;9.80;97.60;;;;;;5095468;28;20168;-43
2022/11/18 00:05:51;;;;;;;1.30;0.83;;;9.80;97.60;;;;;;5096303;28;20440;-43
2022/11/18 00:08:17;;;;;;;2.40;1.00;;;9.80;97.60;;;;;;5097718;28;20693;-43
2022/11/18 00:10:42;;;;;;;1.20;0.80;;;9.80;97.60;;;;;;5097719;28;20425;-44
2022/11/18 00:16:02;;;;;;;1.40;0.80;;;9.80;97.50;;;;;;5091885;28;20207;-46
2022/11/18 00:18:28;;;;;;;1.27;0.77;;;9.80;97.50;;;;;;5077641;28;20817;-45
2022/11/18 00:20:53;;;;;;;1.77;0.97;;;9.80;97.50;;;;;;5059795;28;20420;-43
2022/11/18 00:23:19;;;;;;;2.13;1.20;;;9.80;97.50;;;;;;5077182;28;20243;-43
2022/11/18 00:25:44;;;;;;;1.07;0.60;;;9.80;97.50;;;;;;5077541;28;20184;-43
2022/11/18 00:28:10;;;;;;;1.43;1.03;;;9.80;97.50;;;;;;5077801;28;20200;-45
2022/11/18 00:30:36;;;;;;;1.40;1.00;;;9.80;97.50;;;;;;5077594;28;20185;-44
2022/11/18 00:33:01;;;;;;;1.70;0.90;;;9.80;97.50;;;;;;5077275;28;20208;-44
2022/11/18 00:35:27;;;;;;;1.40;0.60;;;9.80;97.60;;;;;;5075436;28;20236;-48
2022/11/18 00:37:52;;;;;;;1.47;0.60;;;9.80;97.60;;;;;;5076644;28;20511;-42
2022/11/18 00:40:18;;;;;;;1.70;0.60;;;9.80;97.50;;;;;;5076469;28;20260;-44
2022/11/18 00:42:52;;;;;;;1.00;0.50;;;9.80;97.50;;;;;;5077109;28;20185;-46
2022/11/18 00:45:19;;;;;;;1.30;0.70;;;9.80;97.50;;;;;;5077329;28;20191;-43
2022/11/18 00:47:45;;;;;;;0.93;0.57;;;9.90;97.60;;;;;;5077111;28;20511;-44
2022/11/18 00:50:11;;;;;;;1.10;0.60;;;9.90;97.50;;;;;;5076962;28;20506;-47
2022/11/18 00:52:37;;;;;;;1.93;1.07;;;9.90;97.50;;;;;;5077511;28;20906;-44
2022/11/18 00:55:03;;;;;;;2.00;0.60;;;9.90;97.50;;;;;;5076521;28;20845;-43
2022/11/18 00:57:29;;;;;;;0.90;0.40;;;9.90;97.50;;;;;;5076950;28;20177;-44
2022/11/18 00:59:54;;;;;;;1.00;0.60;;;9.90;97.40;;;;;;5075978;28;20500;-47
2022/11/18 01:02:20;;;;;;;1.20;0.50;;;9.90;97.40;;;;;;5075356;28;20574;-43
2022/11/18 01:04:46;;;;;;;1.20;0.50;;;9.90;97.50;;;;;;5076643;28;20625;-44
2022/11/18 01:07:11;;;;;;;2.17;0.60;;;9.90;97.40;;;;;;5077318;28;20180;-45
2022/11/18 01:09:37;;;;;;;1.67;0.40;;;9.90;97.40;;;;;;5059579;28;20182;-46
2022/11/18 01:14:46;;;;;;;1.30;0.60;;;9.90;97.40;;;;;;5070366;28;20209;-45
2022/11/18 01:17:12;;;;;;;0.97;0.57;;;9.90;97.40;;;;;;5075222;28;20404;-47
2022/11/18 01:19:38;;;;;;;1.27;0.50;;;9.90;97.40;;;;;;5076291;28;20169;-45
2022/11/18 01:22:03;;;;;;;1.20;0.40;;;9.90;97.40;;;;;;5076736;28;20231;-44
2022/11/18 01:24:30;;;;;;;0.70;0.30;;;9.90;97.40;;;;;;5076083;28;20197;-43
2022/11/18 01:26:56;;;;;;;1.00;0.60;;;9.90;97.40;;;;;;5075883;28;20265;-43
2022/11/18 01:29:22;;;;;;;0.80;0.40;;;9.90;97.50;;;;;;5074912;28;20823;-45
2022/11/18 01:31:47;;;;;;;2.90;0.77;;;9.90;97.40;;;;;;5075242;28;20178;-44
2022/11/18 01:34:13;;;;;;;1.07;0.47;;;9.90;97.50;;;;;;5075245;28;20174;-44
2022/11/18 01:36:38;;;;;;;1.87;0.57;;;9.90;97.50;;;;;;5080466;28;20212;-44
2022/11/18 01:39:04;;;;;;;0.83;0.47;;;9.90;97.50;;;;;;5079108;28;20165;-43
2022/11/18 01:41:30;;;;;;;2.60;0.50;;;9.90;97.50;;;;;;5073029;28;20235;-47
2022/11/18 01:44:24;;;;;;;1.27;0.50;;;9.90;97.50;;;;;;5079834;28;20252;-47
2022/11/18 01:46:50;;;;;;;1.20;0.40;;;9.90;97.50;;;;;;5080675;28;20799;-44
2022/11/18 01:49:15;;;;;;;0.80;0.40;;;9.90;97.50;;;;;;5080369;28;20443;-44
2022/11/18 01:51:48;;;;;;;0.90;0.40;;;9.90;97.60;;;;;;5080345;28;20173;-44
2022/11/18 01:54:22;;;;;;;0.90;0.30;;;9.90;97.60;;;;;;5062425;28;20495;-43
2022/11/18 01:56:53;;;;;;;0.90;0.50;;;9.90;97.60;;;;;;5080676;28;20435;-43
2022/11/18 01:59:21;;;;;;;0.80;0.40;;;9.90;97.60;;;;;;5080088;28;20410;-44
2022/11/18 02:01:47;;;;;;;1.37;0.50;;;9.90;97.60;;;;;;5061317;28;20480;-43
2022/11/18 02:04:13;;;;;;;0.80;0.30;;;9.90;97.60;;;;;;5080078;28;20392;-44
2022/11/18 02:06:40;;;;;;;1.10;0.50;;;9.90;97.60;;;;;;5080403;28;20408;-43
2022/11/18 02:09:05;;;;;;;0.80;0.30;;;9.90;97.60;;;;;;5078819;28;20415;-47
2022/11/18 02:11:49;;;;;;;1.00;0.40;;;9.90;97.60;;;;;;5060601;28;20822;-45
2022/11/18 02:14:18;;;;;;;1.20;0.30;;;9.90;97.70;;;;;;5077544;28;20221;-44
2022/11/18 02:16:53;;;;;;;0.70;0.30;;;9.90;97.70;;;;;;5077337;28;21006;-46
2022/11/18 02:19:47;;;;;;;0.90;0.33;;;9.90;97.70;;;;;;5077627;28;20408;-44
2022/11/18 02:22:24;;;;;;;0.80;0.40;;;9.80;97.60;;;;;;5077834;28;20441;-43
2022/11/18 02:25:01;;;;;;;0.90;0.40;;;9.80;97.60;;;;;;5077922;28;20485;-43
2022/11/18 02:27:48;;;;;;;0.87;0.30;;;9.90;97.70;;;;;;5079861;28;20500;-44
2022/11/18 02:30:15;;;;;;;0.87;0.40;;;9.80;97.60;;;;;;5080187;28;20415;-45
2022/11/18 02:32:54;;;;;;;0.70;0.30;;;9.90;97.70;;;;;;5079654;28;20411;-44
2022/11/18 02:35:39;;;;;;;1.00;0.40;;;9.80;97.70;;;;;;5061946;28;20748;-42
2022/11/18 02:38:12;;;;;;;0.70;0.30;;;9.80;97.70;;;;;;5079486;28;20920;-43
2022/11/18 02:40:47;;;;;;;0.80;0.30;;;9.90;97.70;;;;;;5061599;28;20455;-45
2022/11/18 02:43:15;;;;;;;1.20;0.30;;;9.80;97.70;;;;;;5061493;28;20427;-45
2022/11/18 02:45:44;;;;;;;0.70;0.30;;;9.80;97.80;;;;;;5078999;28;20470;-44
2022/11/18 02:48:11;;;;;;;0.80;0.30;;;9.80;97.80;;;;;;5079134;28;20777;-46
2022/11/18 02:50:37;;;;;;;1.43;0.20;;;9.80;97.80;;;;;;5061428;28;20435;-45
2022/11/18 02:53:04;;;;;;;0.87;0.30;;;9.80;97.80;;;;;;5079099;28;20745;-45
2022/11/18 02:55:32;;;;;;;0.70;0.23;;;9.80;97.80;;;;;;5077629;28;20479;-45
2022/11/18 02:57:58;;;;;;;1.00;0.40;;;9.80;97.90;;;;;;5061175;28;20436;-46
2022/11/18 03:00:24;;;;;;;1.30;0.40;;;9.80;97.90;;;;;;5060977;28;20810;-43
2022/11/18 03:02:50;;;;;;;1.40;0.30;;;9.80;97.90;;;;;;5078533;28;20547;-45
2022/11/18 03:05:37;;;;;;;0.70;0.30;;;9.80;97.90;;;;;;5078724;28;20562;-44
2022/11/18 03:08:09;;;;;;;0.90;0.30;;;9.80;97.90;;;;;;5078876;28;20716;-46
2022/11/18 03:11:07;;;;;;;4.13;0.50;;;9.80;97.90;;;;;;5078672;28;20691;-43
2022/11/18 03:13:42;;;;;;;0.70;0.30;;;9.80;97.90;;;;;;4987464;28;20561;-43
2022/11/18 03:16:16;;;;;;;1.10;0.30;;;9.80;97.80;;;;;;5075180;28;20462;-45
2022/11/18 03:19:01;;;;;;;0.93;0.40;;;9.80;97.90;;;;;;5061108;28;20481;-44
2022/11/18 03:21:38;;;;;;;0.80;0.30;;;9.80;97.90;;;;;;5060792;28;20847;-45
2022/11/18 03:24:15;;;;;;;0.70;0.30;;;9.80;97.90;;;;;;5060751;28;20412;-43
2022/11/18 03:26:51;;;;;;;1.23;0.57;;;9.80;97.90;;;;;;5078275;28;20411;-43
2022/11/18 03:29:20;;;;;;;0.90;0.30;;;9.80;97.90;;;;;;5044246;28;20533;-48
2022/11/18 03:31:59;;;;;;;0.90;0.30;;;9.80;97.90;;;;;;5060947;28;20427;-44
2022/11/18 03:34:33;;;;;;;1.03;0.33;;;9.80;97.90;;;;;;5060178;28;20897;-46
2022/11/18 03:37:00;;;;;;;0.93;0.40;;;9.80;98.00;;;;;;5060708;28;20424;-43
2022/11/18 03:39:29;;;;;;;1.10;0.40;;;9.80;98.00;;;;;;5078553;28;20431;-44
2022/11/18 03:42:03;;;;;;;0.70;0.30;;;9.80;98.00;;;;;;5060650;28;20474;-43
2022/11/18 03:44:33;;;;;;;0.90;0.30;;;9.80;98.40;;;;;;5060114;28;20420;-45
2022/11/18 03:47:05;;;;;;;0.90;0.40;;;9.80;98.10;;;;;;5078492;28;20516;-43
2022/11/18 03:49:44;;;;;;;2.00;0.50;;;9.80;98.10;;;;;;5060132;28;20427;-44
2022/11/18 03:52:17;;;;;;;1.10;0.57;;;9.80;98.20;;;;;;5077078;28;20420;-45
2022/11/18 03:54:44;;;;;;;0.83;0.43;;;9.80;98.30;;;;;;5057833;28;20476;-43
2022/11/18 03:57:26;;;;;;;1.47;0.60;;;9.80;98.40;;;;;;5076688;28;20488;-43
2022/11/18 04:00:13;;;;;;;2.73;0.70;;;9.80;98.40;;;;;;5059613;28;20431;-44
2022/11/18 04:02:38;;;;;;;1.63;0.60;;;9.70;98.40;;;;;;5059920;28;20450;-45
2022/11/18 04:05:07;;;;;;;1.43;0.60;;;9.80;98.50;;;;;;5077141;28;20428;-43
2022/11/18 04:07:39;;;;;;;1.97;1.03;;;9.70;98.40;;;;;;5060411;28;20185;-44
2022/11/18 04:10:05;;;;;;;1.10;0.50;;;9.70;98.40;;;;;;5076876;28;20419;-43
2022/11/18 04:12:32;;;;;;;1.00;0.50;;;9.70;98.50;;;;;;5075961;28;20507;-43
2022/11/18 04:14:58;;;;;;;1.00;0.50;;;9.70;98.50;;;;;;5058963;28;20209;-45
2022/11/18 04:17:26;;;;;;;2.10;1.20;;;9.70;98.50;;;;;;5076298;28;20419;-43
2022/11/18 04:19:52;;;;;;;2.40;1.60;;;9.70;98.60;;;;;;5059270;28;20235;-43
2022/11/18 04:22:18;;;;;;;1.67;1.20;;;9.60;98.60;;;;;;5075797;28;20408;-44
2022/11/18 04:24:44;;;;;;;2.03;1.00;;;9.60;98.60;;;;;;5075480;28;20189;-46
2022/11/18 04:27:10;;;;;;;1.30;1.10;;;9.60;98.50;;;;;;5077538;28;20181;-42
2022/11/18 04:29:35;;;;;;;3.20;1.20;;;9.60;98.40;;;;;;5071882;28;20216;-46
2022/11/18 04:32:01;;;;;;;1.83;0.93;;;9.50;98.20;;;;;;5074319;28;20420;-48
2022/11/18 04:34:27;;;;;;;1.43;0.70;;;9.50;98.00;;;;;;5076971;28;20174;-44
2022/11/18 04:36:53;;;;;;;1.03;0.70;;;9.40;97.80;;;;;;5077155;28;20414;-43
2022/11/18 04:39:19;;;;;;;0.90;0.60;;;9.40;97.40;;;;;;5076031;28;20436;-43
2022/11/18 04:41:56;;;;;;;1.20;0.80;;;9.40;97.20;;;;;;5074500;28;20260;-43
2022/11/18 04:44:25;;;;;;;1.10;0.67;;;9.30;97.00;;;;;;5074906;28;20252;-45
2022/11/18 04:46:51;;;;;;;1.60;0.90;;;9.30;97.00;;;;;;5075431;28;20473;-43
2022/11/18 04:49:17;;;;;;;1.00;0.50;;;9.30;96.90;;;;;;5075320;28;20415;-42
2022/11/18 04:51:44;;;;;;;1.00;0.50;;;9.30;96.90;;;;;;5074780;28;20413;-46
2022/11/18 04:54:10;;;;;;;2.90;0.60;;;9.30;96.90;;;;;;5075038;28;20177;-44
2022/11/18 04:56:36;;;;;;;3.03;0.50;;;9.20;96.90;;;;;;5058689;28;20717;-45
2022/11/18 04:59:03;;;;;;;1.00;0.60;;;9.20;96.90;;;;;;5075337;28;20803;-43
2022/11/18 05:01:31;;;;;;;1.10;0.40;;;9.20;96.90;;;;;;5076139;28;20695;-43
2022/11/18 05:03:59;;;;;;;1.10;0.50;;;9.20;97.00;;;;;;5075773;28;20862;-44
2022/11/18 05:06:25;;;;;;;1.00;0.40;;;9.20;97.00;;;;;;5067177;28;20445;-44
2022/11/18 05:08:51;;;;;;;1.17;0.40;;;9.20;97.00;;;;;;5074711;28;20422;-45
2022/11/18 05:14:01;;;;;;;0.70;0.30;;;9.20;97.00;;;;;;5080199;28;20184;-45
2022/11/18 05:16:26;;;;;;;1.13;0.50;;;9.20;97.10;;;;;;5080791;28;20475;-43
2022/11/18 05:18:52;;;;;;;0.70;0.27;;;9.10;97.10;;;;;;5077907;28;20600;-46
2022/11/18 05:21:18;;;;;;;0.80;0.40;;;9.10;97.20;;;;;;5077987;28;20206;-43
2022/11/18 05:23:43;;;;;;;1.17;0.50;;;9.10;97.20;;;;;;5078483;28;20202;-43
2022/11/18 05:26:10;;;;;;;1.00;0.50;;;9.10;97.20;;;;;;5079473;28;20182;-43
2022/11/18 05:28:36;;;;;;;1.70;0.43;;;9.10;97.30;;;;;;5077324;28;20569;-43
2022/11/18 05:31:10;;;;;;;1.63;0.50;;;9.10;97.30;;;;;;5075553;28;20911;-44
2022/11/18 05:33:35;;;;;;;1.30;0.60;;;9.10;97.30;;;;;;5058707;28;20427;-44
2022/11/18 05:36:05;;;;;;;0.80;0.50;;;9.10;97.30;;;;;;5075968;28;20474;-42
2022/11/18 05:38:32;;;;;;;1.67;0.67;;;9.10;97.30;;;;;;5067980;28;20170;-46
2022/11/18 05:40:58;;;;;;;0.93;0.50;;;9.10;97.30;;;;;;5076501;28;20410;-43
2022/11/18 05:43:24;;;;;;;1.30;0.60;;;9.10;97.30;;;;;;5076925;28;20428;-45
2022/11/18 05:45:50;;;;;;;0.93;0.50;;;9.10;97.30;;;;;;5042640;28;20187;-43
2022/11/18 05:48:16;;;;;;;1.00;0.40;;;9.10;97.40;;;;;;5074911;28;20171;-46
2022/11/18 05:50:45;;;;;;;0.87;0.40;;;9.10;97.40;;;;;;5076826;28;20434;-46
2022/11/18 05:53:11;;;;;;;1.80;1.17;;;9.00;97.40;;;;;;5076751;28;20423;-44
2022/11/18 05:55:47;;;;;;;1.10;0.60;;;9.10;97.50;;;;;;5075387;28;20479;-43
2022/11/18 05:58:12;;;;;;;1.10;0.50;;;9.10;97.50;;;;;;5057041;28;20523;-43
2022/11/18 06:00:38;;;;;;;0.90;0.60;;;9.00;97.50;;;;;;5076564;28;20802;-43
2022/11/18 06:03:08;;;;;;;1.00;0.43;;;9.00;97.40;;;;;;5074923;28;20436;-43
2022/11/18 06:05:33;;;;;;;2.30;0.53;;;9.00;97.40;;;;;;5058919;28;20177;-45
2022/11/18 06:07:59;;;;;;;1.33;0.50;;;9.00;97.40;;;;;;5076958;28;20435;-42
2022/11/18 06:10:29;;;;;;;0.90;0.53;;;9.00;97.40;;;;;;5077436;28;20239;-42
2022/11/18 06:12:57;;;;;;;2.07;0.47;;;8.90;97.20;;;;;;5078721;28;20707;-42
2022/11/18 06:15:25;;;;;;;1.10;0.50;;;8.80;97.30;;;;;;5077836;28;20463;-42
2022/11/18 06:18:28;;;;;;;1.00;0.50;;;8.80;97.40;;;;;;5074096;28;20471;-43
2022/11/18 06:21:03;;;;;;;1.47;0.80;;;8.70;97.50;;;;;;5078198;28;20581;-43
2022/11/18 06:23:31;;;;;;;1.10;0.50;;;8.70;97.70;;;;;;5085386;28;20422;-44
2022/11/18 06:25:56;;;;;;;1.50;0.60;;;8.60;97.70;;;;;;5093965;28;20823;-41
2022/11/18 06:28:23;;;;;;;2.37;0.70;;;8.60;97.80;;;;;;5090908;28;20423;-42
2022/11/18 06:30:48;;;;;;;1.93;0.50;;;8.60;97.90;;;;;;5087864;28;20541;-42
2022/11/18 06:33:14;;;;;;;1.10;0.60;;;8.60;98.00;;;;;;5091126;28;20880;-42
2022/11/18 06:35:42;;;;;;;1.00;0.50;;;8.60;98.00;;;;;;5092563;28;20258;-41
2022/11/18 06:38:08;;;;;;;1.10;0.50;;;8.50;98.00;;;;;;5073306;28;20183;-40
2022/11/18 06:40:34;;;;;;;1.10;0.50;;;8.50;98.00;;;;;;5092315;28;20419;-41
2022/11/18 06:48:33;;;;;;;2.37;1.33;;;8.50;98.00;;;;;;5095069;28;20433;-41
2022/11/18 06:50:59;;;;;;;1.93;1.00;;;8.50;98.00;;;;;;5093592;28;20419;-41
2022/11/18 06:53:25;;;;;;;2.40;1.27;;;8.50;98.10;;;;;;5056602;28;20542;-41
2022/11/18 06:55:50;;;;;;;1.97;1.20;;;8.50;98.20;;;;;;5091603;28;20281;-43
2022/11/18 06:58:16;;;;;;;1.53;0.90;;;8.50;98.20;;;;;;5091740;28;20181;-41
2022/11/18 07:00:41;;;;;;;2.17;1.10;;;8.50;98.30;;;;;;5089476;28;20179;-40
2022/11/18 07:03:07;;;;;;;1.80;1.00;;;8.50;98.30;;;;;;5091844;28;20262;-42
2022/11/18 07:05:33;;;;;;;2.07;1.20;;;8.50;98.30;;;;;;5092613;28;20547;-41
2022/11/18 07:07:58;;;;;;;1.87;1.20;;;8.60;98.30;;;;;;5094005;28;20191;-42
2022/11/18 07:10:24;;;;;;;1.37;0.73;;;8.50;98.20;;;;;;5094893;28;20270;-42
2022/11/18 07:12:49;;;;;;;1.37;0.77;;;8.60;98.20;;;;;;5095687;28;20266;-40
2022/11/18 07:15:15;;;;;;;2.30;0.70;;;8.60;98.20;;;;;;5095494;28;20209;-42
2022/11/18 07:17:41;;;;;;;1.17;0.60;;;8.60;98.20;;;;;;5096538;28;20173;-40
2022/11/18 07:20:07;;;;;;;1.50;0.90;;;8.60;98.20;;;;;;5095162;28;20216;-40
2022/11/18 07:22:32;;;;;;;1.63;0.80;;;8.60;98.10;;;;;;5095828;28;20596;-42
2022/11/18 07:25:01;;;;;;;3.37;0.67;;;8.70;98.10;;;;;;5094805;28;20420;-40
2022/11/18 07:27:26;;;;;;;1.53;0.70;;;8.70;98.10;;;;;;5093295;28;20208;-41
2022/11/18 07:29:52;;;;;;;1.20;0.70;;;8.80;98.10;;;;;;5093487;28;20442;-42
2022/11/18 07:32:17;;;;;;;1.00;0.40;;;8.80;98.10;;;;;;5077322;28;20181;-42
2022/11/18 07:34:43;;;;;;;1.10;0.60;;;8.80;98.00;;;;;;5078225;28;20187;-40
2022/11/18 07:37:09;;;;;;;1.90;0.90;;;8.80;97.90;;;;;;5095302;28;20363;-40
2022/11/18 07:39:35;;;;;;;2.00;0.90;;;8.90;97.90;;;;;;5094596;28;20716;-41
2022/11/18 07:42:00;;;;;;;1.60;1.00;;;8.90;97.90;;;;;;5093621;28;20215;-41
2022/11/18 07:44:26;;;;;;;1.57;1.00;;;8.90;97.90;;;;;;5095459;28;20305;-40
2022/11/18 07:46:51;;;;;;;1.37;0.80;;;8.90;97.90;;;;;;5093500;28;20296;-40
2022/11/18 07:49:17;;;;;;;1.40;0.80;;;9.00;97.90;;;;;;5093952;28;20253;-40
2022/11/18 07:51:43;;;;;;;1.50;0.80;;;9.00;97.90;;;;;;5094778;28;20184;-40
2022/11/18 07:54:11;;;;;;;2.80;0.70;;;9.10;97.90;;;;;;5053135;28;1164911;-42
2022/11/18 07:56:37;;;;;;;1.53;0.77;;;9.10;97.80;;;;;;5095475;28;20224;-42
2022/11/18 07:59:03;;;;;;;1.43;1.03;;;9.20;97.70;;;;;;5095089;28;20419;-42
2022/11/18 08:01:29;;;;;;;2.00;0.80;;;9.30;97.60;;;;;;5096234;28;20165;-42
2022/11/18 08:03:56;;;;;;;1.20;0.80;;;9.30;97.50;;;;;;5096763;28;20568;-40
2022/11/18 08:06:22;;;;;;;1.30;0.93;;;9.40;97.40;;;;;;5096263;28;20430;-41
2022/11/18 08:08:48;;;;;;;1.43;0.83;;;9.40;97.30;;;;;;5097175;28;20425;-41
2022/11/18 08:11:15;;;;;;;1.40;0.80;;;9.50;97.20;;;;;;5095455;28;20165;-39
2022/11/18 08:13:41;;;;;;;3.07;1.20;;;9.50;97.20;;;;;;5093259;28;20420;-42
2022/11/18 08:16:15;;;;;;;1.73;1.07;;;9.50;97.10;;;;;;5093704;28;20463;-43
2022/11/18 08:18:41;;;;;;;1.73;1.10;;;9.60;97.10;;;;;;5095689;28;20174;-41
2022/11/18 08:21:07;;;;;;;1.60;1.30;;;9.60;97.10;;;;;;5095017;28;20399;-41
2022/11/18 08:23:33;;;;;;;2.80;1.30;;;9.70;97.00;;;;;;5094610;28;20183;-39
2022/11/18 08:26:04;;;;;;;2.37;1.60;;;9.70;97.20;;;;;;5077842;28;20411;-41
2022/11/18 08:28:29;;;;;;;2.57;1.57;;;9.80;96.90;;;;;;5095631;28;20435;-41
2022/11/18 08:30:55;;;;;;;1.90;1.40;;;9.90;96.90;;;;;;5092560;28;20473;-41
2022/11/18 08:33:21;;;;;;;3.43;1.33;;;10.00;96.20;;;;;;5094399;28;20263;-40
2022/11/18 08:35:46;;;;;;;1.80;1.30;;;10.00;96.10;;;;;;5095997;28;20291;-42
2022/11/18 08:38:12;;;;;;;1.93;1.20;;;10.10;96.00;;;;;;5095198;28;20164;-42
2022/11/18 08:40:39;;;;;;;1.53;1.00;;;10.20;95.90;;;;;;5095833;28;20180;-41
2022/11/18 08:43:05;;;;;;;1.33;0.80;;;10.20;95.80;;;;;;5095045;28;20712;-42
2022/11/18 08:45:31;;;;;;;1.80;1.20;;;10.20;95.70;;;;;;5092445;28;20477;-43
2022/11/18 08:47:56;;;;;;;2.53;1.20;;;10.30;95.70;;;;;;5095274;28;20173;-40
2022/11/18 08:50:22;;;;;;;1.43;1.00;;;10.30;95.70;;;;;;5095277;28;20185;-42
2022/11/18 08:52:47;;;;;;;2.30;1.20;;;10.30;95.70;;;;;;5095188;28;20191;-41
2022/11/18 08:55:13;;;;;;;1.27;0.80;;;10.30;95.70;;;;;;5093281;28;20228;-42
2022/11/18 08:57:38;;;;;;;1.83;1.10;;;10.30;96.00;;;;;;5075214;28;21594;-40
2022/11/18 09:00:05;;;;;;;2.50;1.03;;;10.20;95.60;;;;;;5077442;28;20539;-42
2022/11/18 09:02:31;;;;;;;1.90;1.00;;;10.20;95.70;;;;;;5095245;28;20184;-42
2022/11/18 09:04:56;;;;;;;1.37;0.77;;;10.20;95.70;;;;;;5094766;28;20424;-41
2022/11/18 09:07:22;;;;;;;1.47;0.97;;;10.20;95.80;;;;;;5094192;28;20180;-41
2022/11/18 09:09:49;;;;;;;1.97;1.03;;;10.20;95.70;;;;;;5094561;28;20189;-42
2022/11/18 09:12:16;;;;;;;1.20;0.70;;;10.20;95.70;;;;;;5093914;28;20311;-41
2022/11/18 09:14:46;;;;;;;1.60;1.17;;;10.20;95.70;;;;;;5093251;28;20820;-41
2022/11/18 09:17:13;;;;;;;1.40;1.00;;;10.20;95.70;;;;;;5093078;28;20422;-41
2022/11/18 09:19:38;;;;;;;1.43;0.90;;;10.20;95.80;;;;;;5092693;28;20435;-41
2022/11/18 09:22:04;;;;;;;2.13;1.07;;;10.20;95.80;;;;;;5093710;28;20875;-44
2022/11/18 09:24:30;;;;;;;1.60;1.10;;;10.20;95.90;;;;;;5093192;28;20427;-41
2022/11/18 09:26:56;;;;;;;1.93;1.03;;;10.30;95.90;;;;;;5093556;28;20427;-41
2022/11/18 09:29:24;;;;;;;2.07;1.03;;;10.30;95.90;;;;;;5092047;28;20685;-42
2022/11/18 09:31:51;;;;;;;1.20;0.80;;;10.40;95.90;;;;;;5093419;28;20212;-41
2022/11/18 09:34:16;;;;;;;2.33;0.93;;;10.50;95.80;;;;;;5093681;28;20855;-43
2022/11/18 09:36:42;;;;;;;1.60;0.90;;;10.70;95.70;;;;;;5093852;28;20466;-41
2022/11/18 09:39:08;;;;;;;1.30;1.00;;;10.80;95.40;;;;;;5094729;28;20173;-43
2022/11/18 09:42:05;;;;;;;1.10;0.70;;;10.80;95.10;;;;;;5094425;28;20173;-44
2022/11/18 09:44:33;;;;;;;1.00;0.57;;;10.90;95.10;;;;;;5093989;28;20170;-42
2022/11/18 09:47:24;;;;;;;1.47;0.70;;;10.90;94.90;;;;;;5094708;28;20488;-43
2022/11/18 09:49:51;;;;;;;2.07;0.70;;;10.90;94.80;;;;;;5077259;28;20415;-45
2022/11/18 09:52:39;;;;;;;1.27;0.63;;;10.90;94.80;;;;;;5077018;28;20423;-41
2022/11/18 09:55:12;;;;;;;1.47;0.63;;;10.90;94.80;;;;;;5095991;28;20476;-41
2022/11/18 09:57:52;;;;;;;1.30;0.87;;;10.90;94.90;;;;;;5098410;28;20751;-42
2022/11/18 10:00:20;;;;;;;1.27;0.70;;;10.90;95.00;;;;;;5098146;28;20490;-41
2022/11/18 10:03:11;;;;;;;2.80;1.13;;;11.00;95.00;;;;;;5099771;28;20487;-42
2022/11/18 10:05:49;;;;;;;1.60;1.03;;;11.10;95.00;;;;;;5081356;28;20552;-46
2022/11/18 10:08:24;;;;;;;1.80;1.10;;;11.20;95.00;;;;;;5077872;28;20434;-42
2022/11/18 10:11:08;;;;;;;1.40;1.17;;;11.40;94.90;;;;;;5099007;28;20426;-43
2022/11/18 10:14:01;;;;;;;2.10;1.00;;;11.60;94.80;;;;;;5099205;28;20522;-42
2022/11/18 10:16:33;;;;;;;1.70;0.93;;;11.90;94.60;;;;;;5099152;28;20936;-45
2022/11/18 10:19:16;;;;;;;1.43;0.97;;;12.20;94.20;;;;;;5099463;28;20410;-41
2022/11/18 10:21:54;;;;;;;1.43;0.93;;;12.40;93.60;;;;;;5098782;28;20414;-42
2022/11/18 10:24:24;;;;;;;1.50;0.90;;;12.60;93.20;;;;;;5080658;28;20419;-41
2022/11/18 10:26:58;;;;;;;1.40;0.83;;;12.80;92.90;;;;;;5080787;28;20944;-40
2022/11/18 10:29:24;;;;;;;1.30;1.03;;;12.90;92.70;;;;;;5096461;28;20423;-41
2022/11/18 10:32:15;;;;;;;2.37;1.50;;;13.00;92.60;;;;;;5098057;28;20843;-41
2022/11/18 10:34:50;;;;;;;1.60;1.03;;;13.10;92.30;;;;;;5096684;28;20489;-40
2022/11/18 10:37:32;;;;;;;2.10;1.10;;;13.20;92.30;;;;;;5080664;28;20789;-41
2022/11/18 10:40:01;;;;;;;2.20;1.23;;;13.40;92.20;;;;;;5078557;28;20415;-42
2022/11/18 10:42:34;;;;;;;3.00;1.20;;;13.70;92.00;;;;;;5078677;28;20415;-41
2022/11/18 10:45:16;;;;;;;1.67;1.00;;;13.90;91.60;;;;;;5096625;28;20422;-40
2022/11/18 10:47:41;;;;;;;1.27;0.93;;;14.00;91.00;;;;;;5096859;28;20488;-44
2022/11/18 10:50:39;;;;;;;3.90;1.37;;;14.00;90.80;;;;;;5097809;28;20407;-41
2022/11/18 10:53:30;;;;;;;1.20;0.80;;;14.00;90.70;;;;;;5096653;28;20179;-41
2022/11/18 10:56:01;;;;;;;2.80;1.43;;;13.90;90.50;;;;;;5097004;28;20476;-42
2022/11/18 10:58:29;;;;;;;2.00;1.20;;;13.80;90.40;;;;;;5097003;28;20885;-42
2022/11/18 11:01:13;;;;;;;1.90;1.00;;;13.70;90.50;;;;;;5097640;28;20455;-42
2022/11/18 11:03:41;;;;;;;2.03;1.27;;;13.70;90.70;;;;;;5097965;28;20494;-41
2022/11/18 11:06:25;;;;;;;2.13;0.80;;;13.60;90.90;;;;;;5078412;28;20458;-41
2022/11/18 11:08:55;;;;;;;1.90;1.00;;;13.60;91.00;;;;;;5093911;28;20415;-43
2022/11/18 11:11:29;;;;;;;1.07;0.90;;;13.50;90.90;;;;;;5096819;28;20505;-43
2022/11/18 11:14:04;;;;;;;1.27;0.93;;;13.60;90.80;;;;;;5097704;28;20415;-41
2022/11/18 11:16:32;;;;;;;2.70;1.20;;;13.70;90.80;;;;;;5079968;28;20790;-41
2022/11/18 11:19:13;;;;;;;1.03;0.70;;;13.90;90.40;;;;;;5079185;28;20411;-42
2022/11/18 11:21:38;;;;;;;1.43;0.73;;;14.30;90.20;;;;;;5098514;28;20439;-42
2022/11/18 11:24:11;;;;;;;1.20;0.50;;;15.40;88.70;;;;;;5080012;28;21046;-44
2022/11/18 11:26:58;;;;;;;1.17;0.70;;;16.30;85.10;;;;;;5097968;28;20462;-42
2022/11/18 11:29:27;;;;;;;2.20;0.70;;;16.80;79.90;;;;;;5079571;28;20419;-42
2022/11/18 11:32:14;;;;;;;1.20;0.60;;;16.60;77.90;;;;;;5094504;28;20419;-46
2022/11/18 11:34:42;;;;;;;1.17;0.60;;;16.30;77.10;;;;;;5073329;28;20439;-40
2022/11/18 11:37:16;;;;;;;1.30;0.90;;;16.00;77.30;;;;;;5095360;28;20836;-41
2022/11/18 11:40:00;;;;;;;1.17;0.57;;;15.60;77.70;;;;;;5094178;28;20536;-40
2022/11/18 11:42:50;;;;;;;1.10;0.60;;;15.20;78.20;;;;;;5095697;28;20422;-40
2022/11/18 11:45:18;;;;;;;2.90;0.80;;;14.70;78.90;;;;;;5061627;28;20703;-43
2022/11/18 11:48:11;;;;;;;1.30;0.80;;;14.40;79.90;;;;;;5095661;28;20418;-44
2022/11/18 11:50:55;;;;;;;2.07;0.70;;;14.40;81.30;;;;;;5095504;28;20829;-41
2022/11/18 11:53:49;;;;;;;1.40;0.80;;;15.00;82.10;;;;;;5095231;28;20420;-44
2022/11/18 11:56:35;;;;;;;1.10;0.50;;;16.10;80.00;;;;;;5093927;28;20541;-50
2022/11/18 11:59:07;;;;;;;1.43;0.80;;;16.70;77.70;;;;;;5091615;28;20451;-41
2022/11/18 12:01:50;;;;;;;1.33;0.63;;;17.30;76.00;;;;;;5076596;28;20422;-45
2022/11/18 12:04:44;;;;;;;1.47;0.87;;;17.50;74.60;;;;;;5094629;28;20418;-43
2022/11/18 12:07:22;;;;;;;3.10;0.70;;;17.40;72.90;;;;;;5091388;28;20868;-42
2022/11/18 12:10:01;;;;;;;2.30;1.00;;;17.00;72.90;;;;;;5094535;28;20411;-41
2022/11/18 12:12:37;;;;;;;1.63;0.93;;;16.70;72.20;;;;;;5090404;28;20419;-42
2022/11/18 12:15:43;;;;;;;1.33;0.93;;;16.40;72.80;;;;;;5081916;28;20471;-41
2022/11/18 12:18:26;;;;;;;1.20;1.00;;;16.40;73.40;;;;;;5053433;28;20456;-41
2022/11/18 12:20:53;;;;;;;3.13;0.90;;;16.90;71.90;;;;;;5091476;28;20433;-43
2022/11/18 12:23:25;;;;;;;2.07;0.80;;;18.10;71.00;;;;;;5086345;28;20422;-41
2022/11/18 12:25:56;;;;;;;2.70;1.10;;;19.20;67.10;;;;;;5093289;28;20416;-41
2022/11/18 12:28:31;;;;;;;1.73;0.80;;;19.20;63.50;;;;;;5089656;28;20484;-41
2022/11/18 12:31:18;;;;;;;1.50;0.97;;;18.80;62.40;;;;;;5074884;28;20454;-42
2022/11/18 12:33:49;;;;;;;1.80;1.00;;;18.10;63.30;;;;;;5091695;28;20408;-43
2022/11/18 12:36:29;;;;;;;1.50;0.87;;;17.40;64.40;;;;;;5092158;28;20843;-43
2022/11/18 12:38:55;;;;;;;2.37;1.00;;;16.80;66.20;;;;;;5093514;28;20483;-41
2022/11/18 12:44:26;;;;;;;2.17;0.90;;;15.90;68.80;;;;;;5095082;28;20712;-40
2022/11/18 12:46:56;;;;;;;3.30;1.00;;;15.60;70.00;;;;;;5094861;28;20478;-45
2022/11/18 12:49:22;;;;;;;1.40;0.73;;;15.50;71.10;;;;;;5075923;28;20424;-42
2022/11/18 12:52:01;;;;;;;3.03;1.10;;;15.80;71.70;;;;;;5093547;28;20419;-43
2022/11/18 12:54:44;;;;;;;1.80;1.10;;;16.60;71.00;;;;;;5073932;28;20282;-43
2022/11/18 12:57:26;;;;;;;2.10;1.07;;;18.50;66.40;;;;;;5072493;28;20657;-42
2022/11/18 12:59:53;;;;;;;1.90;0.87;;;20.70;59.40;;;;;;5075753;28;20403;-41
2022/11/18 13:02:29;;;;;;;1.20;0.70;;;21.90;54.90;;;;;;5092488;28;20469;-42
2022/11/18 13:05:20;;;;;;;2.13;1.00;;;23.10;50.80;;;;;;5094178;28;20410;-44
2022/11/18 13:10:37;;;;;;;2.40;1.10;;;25.00;44.80;;;;;;5091758;28;21076;-41
2022/11/18 13:13:03;;;;;;;3.60;0.97;;;24.20;43.40;;;;;;5073501;28;20463;-46
2022/11/18 13:18:18;;;;;;;2.77;1.10;;;22.10;44.50;;;;;;5074293;28;20416;-42
2022/11/18 13:23:50;;;;;;;2.23;0.93;;;21.00;45.40;;;;;;5075002;28;20426;-42
2022/11/18 13:23:51;;;;;;;2.00;0.90;;;20.00;46.60;;;;;;5080345;28;20420;-42
2022/11/18 13:26:29;;;;;;;1.40;0.60;;;19.00;47.80;;;;;;5094012;28;20453;-43
2022/11/18 13:29:14;;;;;;;1.30;0.60;;;18.40;48.90;;;;;;5067550;28;20458;-42
2022/11/18 13:32:01;;;;;;;1.67;0.67;;;18.00;49.70;;;;;;5070593;28;20840;-41
2022/11/18 13:34:28;;;;;;;2.23;1.13;;;17.80;50.30;;;;;;5089100;28;20416;-44